首页
METAR-TAF:

METAR-TAF

机场 :

伊瓜苏, 巴拉那州, 巴西

纬度: 25-31S, 经度: 054-35W, 海拔: 180米

当前天气观测

该预报发布于35分钟前的21:00 UTC
风速2节,风向西南
温度 19°C
湿度 94%
气压 1015 hPa
能见度10公里或以上
散云层高于1300英尺
阴天层高于1500英尺

METAR: SBFI 252100Z 23002KT 9999 SCT013 OVC015 19/18 Q1015

时间: 18:35 (21:35 UTC)

预报

该预报发布于6小时和35分钟前的15:00 UTC
预报有效从25日的 18点(UTC)到 26日的 18点(UTC)
风速5节,风向南转南东
能见度10公里或以上
少量云层高于3000英尺
短暂存在
从 25日的 18点(UTC)到 25日的 20点(UTC)
能見度: 6000
多云层高于700英尺
少量云层高于3500英尺, 积雨云.
雷暴, 雨
短暂存在
从 26日的 01点(UTC)到 26日的 04点(UTC)
能見度: 3000
轻雾
短暂存在
从 26日的 06点(UTC)到 26日的 12点(UTC)
能見度: 4000
多云层高于700英尺
少量云层高于3500英尺, 塔状积云.
成为
从 26日的 12点(UTC)到 26日的 14点(UTC)
风速10节,风向西
能见度10公里或以上
少量云层高于1500英尺

TAF: SBFI 251500Z 2518/2618 15005KT 9999 FEW030 TX20/2518Z TN16/2609Z TEMPO 2518/2520 6000 TSRA BKN007 FEW035CB TEMPO 2601/2604 3000 BR TEMPO 2606/2612 4000 RA BKN007 FEW035TCU BECMG 2612/2614 28010KT 9999 NSW FEW015 RMK PCO

超过4000个机场的气象观测和天气预报(METAR&TAF报告)。

可查询的气象台以黄色和红色小点在地图上表示。

将鼠标移到小点上方,可查看气象台名称。

然后点击查看天气观测和预报。

如需切换地图:点击带黑十字的绿色按钮放大地图;点击带横线的绿色按钮缩小地图;或者点击绿色箭头查看邻近地区的地图。


METAR-TAF: